Indian Rock, Texas
Current Conditions -  °F | °C
As of 2:35 AM on Friday 28 Nov 2014 (Local Time) from KOSA Reporting Station
Clear Clear  
Wind Chill: 37°   Ceiling: Unl
Heat Index: 37°   Visibility: 4mi
Dew Point: 31°   Wind: 3mph
Humidity: 82%   Direction: 120°ESE
Pressure: 30.39"   Gusts: NA
Location:  32.7353°N, 94.9492°W
Report Text: KOSA 280835Z AUTO 12003KT 4SM CLR 03/00 A3039 RMK AO1 T00251003
Loading
Personal Weather Stations






























Interactive Weather Map New forecast layout! Learn more

10-Day Weather Forecast

Advertisements
Track Severe Weather on mobile